sensor_id;sensor_type;location;lat;lon;timestamp;P1;durP1;ratioP1;P2;durP2;ratioP2
49153;SDS011;49455;52.252;9.124;2022-10-20T07:22:09;13.65;;;8.20;;
49153;SDS011;49455;52.252;9.124;2022-10-20T07:27:09;10.40;;;7.32;;
49153;SDS011;49455;52.252;9.124;2022-10-20T07:32:10;11.93;;;7.82;;
49153;SDS011;49455;52.252;9.124;2022-10-20T07:37:10;12.00;;;7.78;;
49153;SDS011;49455;52.252;9.124;2022-10-20T07:42:10;10.23;;;7.53;;
49153;SDS011;49455;52.252;9.124;2022-10-20T07:47:11;11.02;;;7.35;;
49153;SDS011;49455;52.252;9.124;2022-10-20T07:52:11;11.10;;;8.23;;
49153;SDS011;49455;52.252;9.124;2022-10-20T07:57:12;11.82;;;8.95;;
49153;SDS011;49455;52.252;9.124;2022-10-20T08:02:12;14.55;;;9.75;;
49153;SDS011;49455;52.252;9.124;2022-10-20T08:07:13;11.75;;;8.50;;
49153;SDS011;49455;52.252;9.124;2022-10-20T08:12:13;13.57;;;8.82;;
49153;SDS011;49455;52.252;9.124;2022-10-20T08:17:14;15.68;;;9.38;;
49153;SDS011;49455;52.252;9.124;2022-10-20T08:22:17;13.00;;;9.15;;
49153;SDS011;49455;52.252;9.124;2022-10-20T08:27:18;16.80;;;10.00;;
49153;SDS011;49455;52.252;9.124;2022-10-20T08:32:18;13.27;;;8.45;;
49153;SDS011;49455;52.252;9.124;2022-10-20T08:37:19;13.38;;;9.50;;
49153;SDS011;49455;52.252;9.124;2022-10-20T08:42:19;13.60;;;9.38;;
49153;SDS011;49455;52.252;9.124;2022-10-20T08:47:23;10.82;;;8.98;;
49153;SDS011;49455;52.252;9.124;2022-10-20T08:52:30;12.27;;;9.20;;
49153;SDS011;49455;52.252;9.124;2022-10-20T08:57:31;12.25;;;9.32;;
49153;SDS011;49455;52.252;9.124;2022-10-20T09:02:33;15.82;;;10.48;;
49153;SDS011;49455;52.252;9.124;2022-10-20T09:07:34;14.15;;;9.88;;
49153;SDS011;49455;52.252;9.124;2022-10-20T09:12:37;13.80;;;10.18;;
49153;SDS011;49455;52.252;9.124;2022-10-20T09:17:50;14.10;;;9.10;;
49153;SDS011;49455;52.252;9.124;2022-10-20T09:22:54;13.82;;;9.68;;
49153;SDS011;49455;52.252;9.124;2022-10-20T09:27:54;12.35;;;9.73;;
49153;SDS011;49455;52.252;9.124;2022-10-20T09:32:55;12.07;;;8.98;;
49153;SDS011;49455;52.252;9.124;2022-10-20T09:38:03;14.27;;;9.10;;
49153;SDS011;49455;52.252;9.124;2022-10-20T09:43:10;12.23;;;8.93;;
49153;SDS011;49455;52.252;9.124;2022-10-20T09:53:32;11.60;;;8.82;;
49153;SDS011;49455;52.252;9.124;2022-10-20T09:58:37;11.55;;;8.55;;
49153;SDS011;49455;52.252;9.124;2022-10-20T10:03:42;9.18;;;8.13;;
49153;SDS011;49455;52.252;9.124;2022-10-20T10:08:44;11.25;;;8.45;;
49153;SDS011;49455;52.252;9.124;2022-10-20T10:13:49;13.20;;;8.30;;
49153;SDS011;49455;52.252;9.124;2022-10-20T10:19:01;13.57;;;8.90;;
49153;SDS011;49455;52.252;9.124;2022-10-20T10:24:03;13.27;;;8.43;;
49153;SDS011;49455;52.252;9.124;2022-10-20T10:29:04;11.93;;;7.43;;
49153;SDS011;49455;52.252;9.124;2022-10-20T10:39:14;11.90;;;7.30;;
49153;SDS011;49455;52.252;9.124;2022-10-20T10:49:37;11.85;;;7.10;;
49153;SDS011;49455;52.252;9.124;2022-10-20T11:00:01;10.52;;;7.00;;
49153;SDS011;49455;52.252;9.124;2022-10-20T11:10:21;13.05;;;6.55;;
49153;SDS011;49455;52.252;9.124;2022-10-20T11:26:25;11.73;;;7.65;;
49153;SDS011;49455;52.252;9.124;2022-10-20T11:31:33;13.63;;;7.05;;
49153;SDS011;49455;52.252;9.124;2022-10-20T11:36:45;11.07;;;7.35;;
49153;SDS011;49455;52.252;9.124;2022-10-20T11:41:51;8.65;;;6.43;;
49153;SDS011;49455;52.252;9.124;2022-10-20T11:46:59;9.60;;;6.15;;
49153;SDS011;49455;52.252;9.124;2022-10-20T11:52:13;8.85;;;6.97;;
49153;SDS011;49455;52.252;9.124;2022-10-20T12:18:35;8.70;;;6.87;;
49153;SDS011;49455;52.252;9.124;2022-10-20T12:28:43;8.70;;;6.22;;
49153;SDS011;49455;52.252;9.124;2022-10-20T12:34:01;11.65;;;6.28;;
49153;SDS011;49455;52.252;9.124;2022-10-20T12:44:13;8.23;;;5.88;;
49153;SDS011;49455;52.252;9.124;2022-10-20T12:49:20;9.52;;;5.93;;
49153;SDS011;49455;52.252;9.124;2022-10-20T12:54:37;9.30;;;6.30;;
49153;SDS011;49455;52.252;9.124;2022-10-20T12:59:39;13.55;;;5.97;;
49153;SDS011;49455;52.252;9.124;2022-10-20T13:05:42;10.20;;;5.32;;
49153;SDS011;49455;52.252;9.124;2022-10-20T13:25:56;13.40;;;6.43;;
49153;SDS011;49455;52.252;9.124;2022-10-20T13:41:34;12.07;;;6.27;;
49153;SDS011;49455;52.252;9.124;2022-10-20T13:51:46;8.32;;;5.63;;
49153;SDS011;49455;52.252;9.124;2022-10-20T13:56:48;9.30;;;5.38;;
49153;SDS011;49455;52.252;9.124;2022-10-20T14:01:51;11.47;;;5.50;;
49153;SDS011;49455;52.252;9.124;2022-10-20T14:12:05;10.98;;;5.95;;
49153;SDS011;49455;52.252;9.124;2022-10-20T14:17:16;9.73;;;5.82;;
49153;SDS011;49455;52.252;9.124;2022-10-20T14:22:19;11.77;;;6.43;;
49153;SDS011;49455;52.252;9.124;2022-10-20T14:27:23;12.77;;;6.25;;
49153;SDS011;49455;52.252;9.124;2022-10-20T14:32:27;7.28;;;5.82;;
49153;SDS011;49455;52.252;9.124;2022-10-20T14:37:36;7.13;;;5.97;;
49153;SDS011;49455;52.252;9.124;2022-10-20T14:42:42;11.50;;;6.60;;
49153;SDS011;49455;52.252;9.124;2022-10-20T14:47:43;11.57;;;6.28;;
49153;SDS011;49455;52.252;9.124;2022-10-20T14:52:44;10.23;;;6.63;;
49153;SDS011;49455;52.252;9.124;2022-10-20T14:57:44;8.85;;;6.00;;
49153;SDS011;49455;52.252;9.124;2022-10-20T15:02:45;13.05;;;6.93;;
49153;SDS011;49455;52.252;9.124;2022-10-20T15:07:45;7.88;;;7.07;;
49153;SDS011;49455;52.252;9.124;2022-10-20T15:12:47;10.13;;;7.55;;
49153;SDS011;49455;52.252;9.124;2022-10-20T15:23:10;10.95;;;8.30;;
49153;SDS011;49455;52.252;9.124;2022-10-20T15:33:21;13.68;;;9.32;;
49153;SDS011;49455;52.252;9.124;2022-10-20T15:38:22;13.60;;;7.85;;
49153;SDS011;49455;52.252;9.124;2022-10-20T15:43:22;9.80;;;7.65;;
49153;SDS011;49455;52.252;9.124;2022-10-20T15:48:23;10.05;;;7.78;;
49153;SDS011;49455;52.252;9.124;2022-10-20T15:53:23;10.63;;;8.65;;
49153;SDS011;49455;52.252;9.124;2022-10-20T15:58:24;14.40;;;9.55;;
49153;SDS011;49455;52.252;9.124;2022-10-20T16:03:24;12.05;;;9.77;;
49153;SDS011;49455;52.252;9.124;2022-10-20T16:08:24;13.88;;;10.02;;
49153;SDS011;49455;52.252;9.124;2022-10-20T16:13:25;13.68;;;9.85;;
49153;SDS011;49455;52.252;9.124;2022-10-20T16:18:26;12.57;;;9.93;;
49153;SDS011;49455;52.252;9.124;2022-10-20T16:23:26;14.32;;;9.35;;
49153;SDS011;49455;52.252;9.124;2022-10-20T16:28:27;13.82;;;10.88;;
49153;SDS011;49455;52.252;9.124;2022-10-20T16:33:27;17.20;;;10.25;;
49153;SDS011;49455;52.252;9.124;2022-10-20T16:38:28;16.17;;;11.02;;
49153;SDS011;49455;52.252;9.124;2022-10-20T16:43:28;14.75;;;10.77;;
49153;SDS011;49455;52.252;9.124;2022-10-20T16:48:29;17.50;;;11.45;;
49153;SDS011;49455;52.252;9.124;2022-10-20T16:53:29;21.75;;;12.98;;
49153;SDS011;49455;52.252;9.124;2022-10-20T16:58:30;20.08;;;13.93;;
49153;SDS011;49455;52.252;9.124;2022-10-20T17:03:31;18.25;;;12.73;;
49153;SDS011;49455;52.252;9.124;2022-10-20T17:08:32;18.45;;;13.65;;
49153;SDS011;49455;52.252;9.124;2022-10-20T17:13:34;20.85;;;13.80;;
49153;SDS011;49455;52.252;9.124;2022-10-20T17:23:37;20.95;;;14.02;;
49153;SDS011;49455;52.252;9.124;2022-10-20T17:28:42;20.90;;;14.18;;
49153;SDS011;49455;52.252;9.124;2022-10-20T17:33:43;22.10;;;14.30;;
49153;SDS011;49455;52.252;9.124;2022-10-20T17:38:44;22.77;;;14.60;;
49153;SDS011;49455;52.252;9.124;2022-10-20T17:43:44;21.25;;;15.98;;
49153;SDS011;49455;52.252;9.124;2022-10-20T17:48:45;21.98;;;15.40;;
49153;SDS011;49455;52.252;9.124;2022-10-20T17:53:47;22.37;;;15.63;;
49153;SDS011;49455;52.252;9.124;2022-10-20T17:58:49;23.33;;;16.95;;
49153;SDS011;49455;52.252;9.124;2022-10-20T18:04:01;23.60;;;16.70;;
49153;SDS011;49455;52.252;9.124;2022-10-20T18:09:11;23.73;;;16.70;;
49153;SDS011;49455;52.252;9.124;2022-10-20T18:14:13;24.38;;;18.10;;
49153;SDS011;49455;52.252;9.124;2022-10-20T18:19:15;25.23;;;17.98;;
49153;SDS011;49455;52.252;9.124;2022-10-20T18:24:18;26.98;;;18.80;;
49153;SDS011;49455;52.252;9.124;2022-10-20T18:29:18;23.25;;;18.90;;
49153;SDS011;49455;52.252;9.124;2022-10-20T18:34:19;24.52;;;18.42;;
49153;SDS011;49455;52.252;9.124;2022-10-20T18:39:19;24.92;;;19.38;;
49153;SDS011;49455;52.252;9.124;2022-10-20T18:44:20;26.85;;;18.33;;
49153;SDS011;49455;52.252;9.124;2022-10-20T18:49:20;27.60;;;20.55;;
49153;SDS011;49455;52.252;9.124;2022-10-20T18:54:21;27.50;;;19.02;;
49153;SDS011;49455;52.252;9.124;2022-10-20T18:59:24;27.65;;;19.92;;
49153;SDS011;49455;52.252;9.124;2022-10-20T19:04:25;25.98;;;19.60;;
49153;SDS011;49455;52.252;9.124;2022-10-20T19:09:25;27.55;;;20.75;;
49153;SDS011;49455;52.252;9.124;2022-10-20T19:14:26;27.50;;;20.20;;
49153;SDS011;49455;52.252;9.124;2022-10-20T19:19:26;28.27;;;19.80;;
49153;SDS011;49455;52.252;9.124;2022-10-20T19:24:27;28.85;;;20.20;;
49153;SDS011;49455;52.252;9.124;2022-10-20T19:29:27;25.38;;;19.65;;
49153;SDS011;49455;52.252;9.124;2022-10-20T19:34:29;29.27;;;20.60;;
49153;SDS011;49455;52.252;9.124;2022-10-20T19:39:33;28.60;;;20.33;;
49153;SDS011;49455;52.252;9.124;2022-10-20T19:44:36;27.20;;;19.85;;
49153;SDS011;49455;52.252;9.124;2022-10-20T19:49:37;29.13;;;21.13;;
49153;SDS011;49455;52.252;9.124;2022-10-20T19:54:38;25.52;;;19.55;;
49153;SDS011;49455;52.252;9.124;2022-10-20T19:59:38;25.52;;;20.02;;
49153;SDS011;49455;52.252;9.124;2022-10-20T20:04:39;31.65;;;21.63;;
49153;SDS011;49455;52.252;9.124;2022-10-20T20:09:39;27.40;;;21.10;;
49153;SDS011;49455;52.252;9.124;2022-10-20T20:14:39;30.20;;;21.65;;
49153;SDS011;49455;52.252;9.124;2022-10-20T20:19:40;28.23;;;21.13;;
49153;SDS011;49455;52.252;9.124;2022-10-20T20:24:40;29.63;;;21.02;;
